Portada
METAR-TAF:

METAR-TAF

Aeroports :

Teheran, Iran

latitud: 35-41N, longitud: 051-21E, altitud: 1204 m

Observació

L'informe es va fer fa 29 minuts, a les 06:00 UTC
Vent 4 kt del Oest/Sud-Oest
Temperatura 10°C
Humitat 29%
Pressió 1022 hPa
Visibilitat 10 km o més
Escasses núvols a una alçada de 4000 ft

METAR: OIII 230600Z 24004KT 9999 FEW040 10/M07 Q1021 A3017 NOSIG

Hora: 09:59 (06:29 UTC)

Pronòstic

L'informe es va fer fa 49 minuts, a les 05:40 UTC
Pronòstic vàlid del 23 a les 06 UTC al 24 a les 12 UTC
Vent 8 kt del Sud/Sud-Oest
Visibilitat: 8000 m
Escasses núvols a una alçada de 4000 ft
Temporalment
l' 23 a les 12 UTC al 23 a les 15 UTC
Vent 14 kt del Oest

TAF: OIII 230540Z 2306/2412 20008KT 8000 FEW040 TEMPO 2312/2315 26014KT

Observacions i pronòstics meteorològics de més de 4000 aeroports (METAR i TAF).

Les estacions disponibles són els punts grocs i vermells al mapa.

Posi el ratolí al punt desitjat per veure el nom de l'estació.

Feu clic per veure les observacions i els pronòstics meteorològics.

Per canviar el mapa: feu clic els botons verds amb una creu de color negre per apropar; al botó verd amb un guió per allunyar la imatge; o en les fletxes verdes per a mapes adjacents.


METAR-TAF: